Bayfield, WI (54814)

8:09 PM CDT on May 25, 2015 (GMT -0500)
Madeline Island Ferry Line - Terminal | | Change Station
CLOSE
Current Station
Personal Weather Station
Location: Bayfield, WI
Elevation: 610 ft
Nearby Weather Stations

Elev 610 ft 46.81 °N, 90.81 °W | Updated 25 seconds ago

Overcast
Overcast
48.4 °F
Feels Like 48 °F
N
0.0
Wind Variable Wind from NE
Gusts 3.0 mph

Today
High -- | Low -- °F
--% Chance of Precip.
Yesterday
High -- | Low -- °F
Precip. -- in
5:18 AM 8:42 PM
First Quarter, 53% visible
Pressure 29.75 in
Visibility 9.0 miles
Clouds Mostly Cloudy 400 ft
Overcast 1000 ft
Windchill 48 °F
Dew Point 48 °F
Humidity 97%
Rainfall 0.62 in
Snow Depth Not available.
UV 0 out of 12
Pollen .90 out of 12
Air Quality Not available.
Flu Activity Sporadic
METAR KASX 252353Z AUTO 34006KT 9SM BKN004 OVC010 12/12 A2974 RMK AO2 CIG 002V007 SLP074 T01220117 10156 20117 53014

More Conditions Fewer Conditions

Pressure 29.75 in
Visibility 9.0 miles
Clouds Mostly Cloudy 400 ft
Overcast 1000 ft
Windchill 48 °F
Dew Point 48 °F
Humidity 97%
Rainfall 0.62 in
Snow Depth Not available.
UV 0 out of 12
Pollen .90 out of 12
Air Quality Not available.
Flu Activity Sporadic
METAR KASX 252353Z AUTO 34006KT 9SM BKN004 OVC010 12/12 A2974 RMK AO2 CIG 002V007 SLP074 T01220117 10156 20117 53014

More Conditions Fewer Conditions

10-Day Weather Forecast

Almanac

Astronomy

May. 25, 2015 Rise Set
Actual Time
Civil Twilight
Nautical Twilight
Astronomical Twilight
Moon
Length of Visible Light
Length of Day
Tomorrow will be .
, % of the Moon is Illuminated

Today's Extremes

State Highs State Lows

Community

WunderPhotos

Upload Photos

1,824,201 photos uploaded!

WunderBlogs® & News

Nearby

Air Quality

  Air Quality AQ Index Pollutant
Not available.

Snow Depth

Station Depth Elevation

Earthquake Activity

City Distance Mag. Time & Date
Minimum magnitude displayed is 2.5.

Coastal Water Temperatures

Place Temperature

Stations

Nearby Weather Stations

Station Location Temp. Windchill Dew Point Humidity Wind Precip. Elev Updated Type